createdAt,value
2022-10-21T00:00:30.108Z,6.10
2022-10-21T00:01:33.486Z,6.10
2022-10-21T00:02:36.326Z,6.10
2022-10-21T00:03:45.029Z,6.10
2022-10-21T00:04:47.472Z,6.10
2022-10-21T00:05:53.066Z,6.10
2022-10-21T00:06:55.297Z,6.10
2022-10-21T00:07:59.704Z,6.20
2022-10-21T00:09:04.876Z,6.00
2022-10-21T00:10:10.062Z,6.00
2022-10-21T00:11:13.186Z,6.00
2022-10-21T00:12:16.657Z,6.00
2022-10-21T00:13:23.245Z,5.90
2022-10-21T00:14:34.016Z,5.90
2022-10-21T00:15:36.878Z,5.80
2022-10-21T00:16:40.183Z,5.80
2022-10-21T00:17:43.368Z,5.80
2022-10-21T00:18:48.926Z,5.80
2022-10-21T00:19:55.874Z,5.80
2022-10-21T00:21:07.586Z,5.70
2022-10-21T00:22:10.040Z,5.70
2022-10-21T00:23:13.538Z,5.70
2022-10-21T00:24:16.101Z,5.70
2022-10-21T00:25:20.389Z,5.70
2022-10-21T00:26:27.348Z,5.70
2022-10-21T00:27:35.471Z,4.60
2022-10-21T00:28:38.254Z,5.60
2022-10-21T00:29:41.600Z,4.20
2022-10-21T00:30:45.256Z,5.50
2022-10-21T00:31:49.053Z,5.60
2022-10-21T00:32:53.892Z,5.50
2022-10-21T00:33:57.786Z,5.50
2022-10-21T00:35:02.249Z,5.50
2022-10-21T00:36:17.814Z,5.50
2022-10-21T00:37:20.580Z,5.50
2022-10-21T00:38:24.594Z,5.50
2022-10-21T00:39:27.242Z,5.40
2022-10-21T00:40:30.854Z,5.40
2022-10-21T00:41:35.381Z,5.40
2022-10-21T00:42:45.534Z,5.40
2022-10-21T00:43:59.768Z,5.40
2022-10-21T00:45:24.824Z,5.40
2022-10-21T00:46:38.670Z,4.10
2022-10-21T00:48:58.783Z,5.20
2022-10-21T00:50:04.804Z,5.20
2022-10-21T00:51:13.885Z,5.10
2022-10-21T00:52:22.355Z,5.10
2022-10-21T00:53:26.965Z,5.10
2022-10-21T00:54:32.802Z,5.10
2022-10-21T00:55:44.988Z,5.10
2022-10-21T00:57:56.174Z,5.20
2022-10-21T00:59:05.249Z,5.00
2022-10-21T01:00:08.944Z,5.00
2022-10-21T01:01:13.680Z,5.10
2022-10-21T01:02:18.892Z,5.10
2022-10-21T01:03:23.715Z,5.10
2022-10-21T01:04:26.486Z,5.00
2022-10-21T01:05:31.467Z,5.10
2022-10-21T01:06:36.433Z,5.10
2022-10-21T01:08:07.204Z,5.10
2022-10-21T01:09:25.707Z,5.00
2022-10-21T01:10:31.754Z,4.90
2022-10-21T01:11:43.383Z,4.90
2022-10-21T01:13:09.244Z,4.80
2022-10-21T01:14:33.520Z,4.80
2022-10-21T01:15:48.012Z,4.70
2022-10-21T01:17:05.601Z,4.70
2022-10-21T01:18:27.632Z,4.80
2022-10-21T01:20:11.857Z,4.80
2022-10-21T01:21:31.453Z,4.80
2022-10-21T01:23:08.007Z,4.80
2022-10-21T01:24:49.864Z,4.80
2022-10-21T01:26:19.862Z,4.80
2022-10-21T01:27:44.792Z,4.80
2022-10-21T01:29:06.949Z,4.80
2022-10-21T01:30:37.205Z,4.80
2022-10-21T01:31:45.462Z,4.80
2022-10-21T01:33:30.731Z,4.80
2022-10-21T01:34:48.505Z,4.80
2022-10-21T01:36:00.238Z,4.80
2022-10-21T01:37:14.589Z,4.80
2022-10-21T01:38:24.110Z,4.70
2022-10-21T01:39:36.301Z,4.70
2022-10-21T01:40:52.969Z,4.80
2022-10-21T01:42:11.914Z,4.70
2022-10-21T01:43:29.634Z,4.40
2022-10-21T01:44:42.967Z,4.70
2022-10-21T01:45:52.878Z,4.70
2022-10-21T01:47:01.930Z,4.70
2022-10-21T01:48:09.301Z,4.70
2022-10-21T01:49:19.848Z,4.70
2022-10-21T01:50:27.716Z,4.70
2022-10-21T01:51:32.700Z,4.60
2022-10-21T01:52:35.402Z,4.70
2022-10-21T01:53:45.289Z,4.70
2022-10-21T01:54:54.194Z,4.60
2022-10-21T01:56:00.966Z,4.60
2022-10-21T01:57:06.804Z,4.60
2022-10-21T01:58:30.361Z,4.60
2022-10-21T01:59:34.508Z,4.60
2022-10-21T02:00:40.769Z,4.50
2022-10-21T02:01:47.999Z,4.60
2022-10-21T02:02:51.396Z,4.40
2022-10-21T02:03:59.749Z,4.50
2022-10-21T02:05:13.721Z,4.50
2022-10-21T02:06:18.798Z,4.40
2022-10-21T02:07:22.276Z,4.40
2022-10-21T02:08:24.975Z,4.30
2022-10-21T02:09:28.779Z,4.30
2022-10-21T02:10:36.896Z,4.40
2022-10-21T02:11:42.046Z,4.40
2022-10-21T02:12:49.387Z,4.30
2022-10-21T02:13:58.464Z,4.30
2022-10-21T02:15:05.296Z,4.30
2022-10-21T02:16:14.374Z,4.30
2022-10-21T02:17:22.425Z,4.20
2022-10-21T02:18:27.227Z,4.20
2022-10-21T02:19:32.512Z,4.20
2022-10-21T02:20:40.050Z,4.10
2022-10-21T02:21:50.712Z,4.10
2022-10-21T02:22:53.881Z,4.20
2022-10-21T02:24:03.168Z,4.20
2022-10-21T02:25:14.584Z,4.20
2022-10-21T02:26:18.341Z,4.10
2022-10-21T02:27:25.219Z,4.20
2022-10-21T02:28:28.788Z,4.20
2022-10-21T02:29:37.652Z,5.30
2022-10-21T02:30:49.162Z,4.20
2022-10-21T02:32:06.738Z,4.10
2022-10-21T02:33:22.254Z,4.10
2022-10-21T02:34:44.976Z,4.00
2022-10-21T02:36:03.942Z,2.70
2022-10-21T02:37:20.671Z,4.10
2022-10-21T02:38:33.038Z,4.10
2022-10-21T02:39:45.026Z,4.10
2022-10-21T02:40:52.369Z,4.10
2022-10-21T02:41:58.958Z,4.70
2022-10-21T02:43:06.858Z,4.00
2022-10-21T02:44:10.983Z,4.00
2022-10-21T02:45:18.790Z,4.00
2022-10-21T02:46:26.670Z,3.90
2022-10-21T02:47:29.928Z,4.00
2022-10-21T02:48:36.055Z,4.00
2022-10-21T02:49:38.327Z,4.00
2022-10-21T02:50:42.017Z,4.00
2022-10-21T02:51:46.408Z,4.00
2022-10-21T02:52:51.754Z,4.00
2022-10-21T02:53:54.005Z,4.00
2022-10-21T02:54:59.699Z,4.00
2022-10-21T02:56:07.720Z,4.00
2022-10-21T02:57:10.952Z,4.00
2022-10-21T02:58:13.438Z,4.00
2022-10-21T02:59:16.878Z,4.00
2022-10-21T03:00:22.228Z,4.00
2022-10-21T03:01:34.187Z,4.00
2022-10-21T03:02:37.183Z,4.00
2022-10-21T03:03:41.933Z,4.00
2022-10-21T03:04:44.474Z,4.00
2022-10-21T03:05:48.075Z,4.00
2022-10-21T03:06:50.628Z,4.00
2022-10-21T03:07:58.411Z,5.60
2022-10-21T03:09:01.132Z,4.00
2022-10-21T03:10:04.905Z,4.10
2022-10-21T03:11:07.422Z,4.70
2022-10-21T03:12:11.044Z,2.40
2022-10-21T03:13:21.120Z,4.10
2022-10-21T03:14:24.661Z,4.10
2022-10-21T03:15:27.004Z,4.10
2022-10-21T03:16:30.298Z,4.10
2022-10-21T03:17:32.684Z,4.10
2022-10-21T03:18:46.202Z,4.20
2022-10-21T03:19:49.077Z,4.10
2022-10-21T03:20:53.784Z,4.10
2022-10-21T03:21:56.054Z,4.10
2022-10-21T03:22:59.369Z,4.00
2022-10-21T03:24:02.572Z,4.00
2022-10-21T03:25:07.638Z,4.00
2022-10-21T03:26:16.144Z,3.90
2022-10-21T03:27:18.477Z,3.90
2022-10-21T03:28:21.945Z,4.00
2022-10-21T03:29:24.579Z,4.00
2022-10-21T03:30:28.162Z,4.10
2022-10-21T03:31:43.739Z,4.10
2022-10-21T03:32:47.259Z,4.10
2022-10-21T03:33:51.040Z,4.10
2022-10-21T03:34:54.412Z,4.20
2022-10-21T03:35:56.762Z,4.20
2022-10-21T03:37:00.463Z,4.10
2022-10-21T03:38:02.929Z,4.30
2022-10-21T03:39:06.377Z,4.10
2022-10-21T03:40:12.278Z,4.40
2022-10-21T03:41:16.008Z,4.10
2022-10-21T03:42:18.574Z,4.00
2022-10-21T03:43:21.900Z,4.00
2022-10-21T03:44:24.141Z,4.00
2022-10-21T03:45:27.746Z,3.90
2022-10-21T03:46:30.204Z,3.90
2022-10-21T03:47:33.801Z,3.90
2022-10-21T03:48:38.034Z,3.90
2022-10-21T03:49:42.820Z,3.90
2022-10-21T03:50:45.077Z,3.90
2022-10-21T03:51:48.362Z,3.90
2022-10-21T03:52:50.975Z,3.90
2022-10-21T03:53:54.202Z,3.90
2022-10-21T03:54:56.602Z,3.90
2022-10-21T03:55:59.846Z,3.90
2022-10-21T03:57:02.445Z,3.90
2022-10-21T03:58:10.863Z,3.80
2022-10-21T03:59:13.330Z,3.90
2022-10-21T04:00:17.520Z,3.90
2022-10-21T04:01:19.877Z,3.90
2022-10-21T04:02:23.419Z,3.90
2022-10-21T04:03:30.278Z,3.80
2022-10-21T04:04:35.997Z,3.80
2022-10-21T04:05:39.619Z,2.60
2022-10-21T04:06:42.958Z,3.70
2022-10-21T04:07:49.257Z,3.70
2022-10-21T04:08:56.108Z,3.70
2022-10-21T04:09:58.704Z,3.70
2022-10-21T04:11:02.023Z,3.70
2022-10-21T04:12:04.666Z,3.70
2022-10-21T04:13:08.081Z,3.70
2022-10-21T04:14:14.441Z,3.60
2022-10-21T04:15:19.442Z,3.50
2022-10-21T04:16:23.326Z,3.50
2022-10-21T04:17:27.363Z,3.40
2022-10-21T04:18:30.253Z,4.00
2022-10-21T04:19:33.694Z,3.40
2022-10-21T04:20:37.110Z,3.40
2022-10-21T04:21:42.863Z,3.40
2022-10-21T04:22:55.328Z,3.80
2022-10-21T04:24:02.197Z,3.50
2022-10-21T04:25:06.146Z,3.50
2022-10-21T04:26:15.255Z,3.60
2022-10-21T04:27:22.831Z,3.60
2022-10-21T04:28:25.485Z,3.60
2022-10-21T04:29:33.456Z,3.50
2022-10-21T04:30:36.764Z,3.50
2022-10-21T04:31:39.127Z,2.70
2022-10-21T04:32:43.055Z,3.50
2022-10-21T04:33:45.792Z,2.90
2022-10-21T04:34:53.353Z,3.60
2022-10-21T04:35:59.960Z,3.60
2022-10-21T04:37:05.199Z,3.50
2022-10-21T04:38:08.963Z,3.50
2022-10-21T04:39:11.480Z,3.50
2022-10-21T04:40:15.147Z,3.50
2022-10-21T04:41:17.470Z,3.50
2022-10-21T04:42:20.803Z,3.50
2022-10-21T04:43:23.090Z,3.60
2022-10-21T04:44:31.242Z,3.50
2022-10-21T04:45:34.129Z,3.60
2022-10-21T04:46:37.828Z,3.60
2022-10-21T04:47:44.858Z,3.60
2022-10-21T04:48:50.521Z,3.60
2022-10-21T04:49:52.917Z,3.50
2022-10-21T04:50:57.959Z,5.40
2022-10-21T04:52:00.671Z,3.50
2022-10-21T04:53:05.492Z,3.50
2022-10-21T04:54:07.772Z,3.50
2022-10-21T04:55:11.264Z,3.40
2022-10-21T04:56:13.806Z,3.40
2022-10-21T04:57:17.238Z,3.50
2022-10-21T04:58:24.716Z,3.40
2022-10-21T04:59:28.162Z,3.40
2022-10-21T05:00:30.571Z,3.50
2022-10-21T05:01:38.364Z,3.50
2022-10-21T05:02:42.555Z,3.50
2022-10-21T05:03:46.005Z,3.50
2022-10-21T05:04:48.323Z,3.50
2022-10-21T05:05:53.997Z,3.60
2022-10-21T05:07:01.734Z,3.60
2022-10-21T05:08:11.505Z,3.60
2022-10-21T05:09:15.475Z,4.10
2022-10-21T05:10:17.953Z,3.70
2022-10-21T05:11:21.262Z,3.60
2022-10-21T05:12:24.173Z,3.60
2022-10-21T05:13:28.302Z,3.60
2022-10-21T05:14:30.569Z,3.60
2022-10-21T05:15:34.865Z,3.70
2022-10-21T05:16:37.232Z,3.70
2022-10-21T05:17:40.948Z,3.80
2022-10-21T05:18:46.683Z,3.70
2022-10-21T05:19:49.986Z,3.60
2022-10-21T05:21:00.299Z,3.60
2022-10-21T05:22:03.954Z,3.60
2022-10-21T05:23:09.681Z,3.60
2022-10-21T05:24:13.186Z,3.70
2022-10-21T05:25:18.687Z,3.70
2022-10-21T05:26:21.973Z,3.70
2022-10-21T05:27:26.773Z,4.20
2022-10-21T05:28:30.349Z,3.60
2022-10-21T05:29:32.820Z,3.70
2022-10-21T05:30:36.278Z,3.70
2022-10-21T05:31:38.749Z,3.80
2022-10-21T05:32:43.263Z,3.80
2022-10-21T05:33:45.756Z,3.90
2022-10-21T05:34:50.868Z,3.80
2022-10-21T05:35:57.251Z,3.80
2022-10-21T05:37:00.767Z,3.90
2022-10-21T05:38:04.607Z,4.00
2022-10-21T05:39:14.761Z,4.10
2022-10-21T05:40:18.588Z,4.30
2022-10-21T05:41:22.357Z,4.40
2022-10-21T05:42:24.773Z,3.00
2022-10-21T05:43:29.225Z,4.60
2022-10-21T05:44:32.905Z,4.70
2022-10-21T05:45:35.486Z,4.80
2022-10-21T05:46:38.829Z,5.80
2022-10-21T05:47:41.937Z,5.00
2022-10-21T05:48:45.752Z,5.00
2022-10-21T05:49:53.029Z,5.10
2022-10-21T05:50:56.895Z,5.10
2022-10-21T05:51:59.215Z,6.00
2022-10-21T05:53:05.429Z,6.70
2022-10-21T05:54:08.183Z,5.80
2022-10-21T05:55:12.865Z,5.90
2022-10-21T05:56:16.960Z,6.10
2022-10-21T05:57:19.443Z,6.20
2022-10-21T05:58:25.759Z,6.30
2022-10-21T05:59:29.369Z,6.30
2022-10-21T06:00:31.816Z,6.20
2022-10-21T06:01:35.401Z,6.00
2022-10-21T06:02:39.015Z,5.90
2022-10-21T06:03:43.958Z,5.70
2022-10-21T06:04:47.317Z,5.40
2022-10-21T06:05:51.067Z,5.30
2022-10-21T06:06:53.898Z,5.20
2022-10-21T06:07:57.519Z,5.10
2022-10-21T06:09:00.592Z,5.00
2022-10-21T06:10:04.995Z,5.00
2022-10-21T06:11:14.081Z,4.90
2022-10-21T06:12:17.471Z,4.80
2022-10-21T06:13:19.803Z,4.70
2022-10-21T06:14:23.187Z,4.70
2022-10-21T06:15:25.849Z,4.70
2022-10-21T06:16:29.252Z,4.60
2022-10-21T06:17:34.117Z,4.50
2022-10-21T06:18:37.961Z,4.50
2022-10-21T06:19:40.261Z,6.40
2022-10-21T06:20:44.026Z,4.50
2022-10-21T06:21:47.331Z,5.50
2022-10-21T06:22:50.588Z,4.40
2022-10-21T06:23:54.036Z,4.50
2022-10-21T06:24:57.357Z,4.40
2022-10-21T06:26:02.905Z,4.40
2022-10-21T06:27:08.716Z,4.40
2022-10-21T06:28:10.931Z,4.40
2022-10-21T06:29:15.967Z,4.40
2022-10-21T06:30:18.578Z,4.30
2022-10-21T06:31:23.030Z,4.40
2022-10-21T06:32:26.546Z,4.50
2022-10-21T06:33:28.995Z,4.50
2022-10-21T06:34:32.827Z,4.60
2022-10-21T06:35:35.436Z,4.50
2022-10-21T06:36:40.966Z,4.60
2022-10-21T06:37:43.892Z,4.60
2022-10-21T06:38:47.252Z,4.60
2022-10-21T06:39:49.679Z,4.60
2022-10-21T06:40:53.782Z,4.60
2022-10-21T06:41:56.355Z,4.60
2022-10-21T06:43:17.876Z,4.60
2022-10-21T06:44:20.516Z,4.80
2022-10-21T06:45:23.926Z,5.00
2022-10-21T06:46:26.882Z,5.10
2022-10-21T06:47:30.590Z,5.10
2022-10-21T06:48:34.111Z,5.10
2022-10-21T06:49:37.663Z,5.40
2022-10-21T06:50:40.651Z,5.50
2022-10-21T06:51:44.117Z,5.70
2022-10-21T06:52:53.816Z,5.80
2022-10-21T06:53:59.996Z,5.90
2022-10-21T06:55:02.374Z,5.90
2022-10-21T06:56:09.133Z,6.10
2022-10-21T06:57:11.581Z,4.80
2022-10-21T06:58:15.391Z,6.10
2022-10-21T06:59:20.763Z,6.10
2022-10-21T07:00:24.760Z,6.00
2022-10-21T07:01:35.305Z,6.10
2022-10-21T07:02:45.117Z,6.20
2022-10-21T07:03:48.293Z,6.20
2022-10-21T07:04:52.916Z,6.20
2022-10-21T07:05:59.523Z,5.70
2022-10-21T07:07:02.967Z,6.30
2022-10-21T07:08:10.602Z,6.30
2022-10-21T07:09:16.892Z,6.30
2022-10-21T07:10:19.375Z,6.30
2022-10-21T07:11:23.056Z,6.10
2022-10-21T07:12:27.277Z,6.00
2022-10-21T07:13:30.855Z,5.90
2022-10-21T07:14:42.011Z,5.80
2022-10-21T07:15:45.870Z,5.80
2022-10-21T07:16:49.415Z,5.80
2022-10-21T07:17:59.443Z,5.90
2022-10-21T07:19:06.231Z,5.90
2022-10-21T07:20:12.833Z,5.90
2022-10-21T07:21:18.845Z,7.00
2022-10-21T07:22:22.173Z,6.10
2022-10-21T07:23:24.674Z,6.20
2022-10-21T07:24:30.800Z,6.10
2022-10-21T07:25:36.817Z,6.00
2022-10-21T07:26:44.602Z,6.20
2022-10-21T07:27:49.560Z,6.30
2022-10-21T07:28:53.068Z,6.30
2022-10-21T07:29:57.889Z,6.40
2022-10-21T07:31:00.483Z,7.80
2022-10-21T07:32:03.859Z,6.70
2022-10-21T07:33:06.415Z,6.80
2022-10-21T07:34:10.297Z,6.90
2022-10-21T07:35:16.172Z,7.60
2022-10-21T07:36:22.764Z,7.00
2022-10-21T07:37:26.278Z,7.10
2022-10-21T07:38:28.894Z,7.20
2022-10-21T07:39:32.678Z,7.00
2022-10-21T07:40:40.463Z,7.00
2022-10-21T07:41:46.450Z,7.00
2022-10-21T07:42:48.902Z,7.10
2022-10-21T07:43:53.670Z,7.20
2022-10-21T07:45:01.223Z,7.30
2022-10-21T07:46:06.097Z,7.30
2022-10-21T07:47:10.886Z,7.40
2022-10-21T07:48:13.362Z,6.30
2022-10-21T07:49:22.674Z,7.50
2022-10-21T07:50:30.293Z,7.40
2022-10-21T07:51:37.954Z,7.20
2022-10-21T07:52:53.473Z,7.10
2022-10-21T07:54:07.912Z,7.10
2022-10-21T07:55:12.320Z,7.10
2022-10-21T07:56:18.164Z,7.10
2022-10-21T07:57:21.611Z,7.10
2022-10-21T07:58:25.001Z,7.90
2022-10-21T07:59:28.770Z,7.20
2022-10-21T08:00:32.463Z,7.20
2022-10-21T08:01:36.432Z,7.20
2022-10-21T08:02:40.802Z,7.20
2022-10-21T08:03:54.706Z,7.20
2022-10-21T08:04:58.650Z,7.10
2022-10-21T08:06:03.040Z,7.10
2022-10-21T08:07:09.194Z,7.10
2022-10-21T08:08:14.080Z,6.90
2022-10-21T08:09:22.671Z,6.90
2022-10-21T08:10:31.388Z,6.60
2022-10-21T08:11:35.616Z,6.80
2022-10-21T08:12:39.346Z,6.80
2022-10-21T08:13:43.193Z,6.80
2022-10-21T08:14:46.447Z,6.70
2022-10-21T08:16:00.900Z,6.80
2022-10-21T08:17:05.424Z,6.80
2022-10-21T08:18:07.712Z,6.70
2022-10-21T08:19:20.457Z,6.70
2022-10-21T08:20:22.911Z,6.60
2022-10-21T08:21:30.661Z,6.60
2022-10-21T08:22:34.435Z,6.60
2022-10-21T08:23:40.687Z,6.60
2022-10-21T08:24:44.023Z,6.70
2022-10-21T08:25:50.936Z,7.00
2022-10-21T08:26:53.384Z,6.90
2022-10-21T08:27:56.989Z,6.90
2022-10-21T08:29:02.958Z,7.00
2022-10-21T08:30:07.258Z,6.90
2022-10-21T08:31:13.246Z,7.00
2022-10-21T08:32:16.615Z,7.00
2022-10-21T08:33:24.609Z,6.90
2022-10-21T08:34:28.028Z,6.90
2022-10-21T08:35:31.586Z,7.00
2022-10-21T08:36:35.009Z,7.00
2022-10-21T08:37:37.456Z,7.10
2022-10-21T08:38:50.997Z,7.00
2022-10-21T08:39:54.798Z,7.10
2022-10-21T08:40:57.121Z,7.00
2022-10-21T08:42:08.909Z,7.20
2022-10-21T08:43:21.082Z,7.00
2022-10-21T08:44:32.357Z,7.00
2022-10-21T08:45:44.913Z,6.80
2022-10-21T08:46:58.960Z,7.10
2022-10-21T08:48:08.062Z,7.10
2022-10-21T08:49:24.069Z,7.10
2022-10-21T08:50:43.840Z,7.20
2022-10-21T08:51:51.808Z,7.30
2022-10-21T08:53:00.843Z,7.40
2022-10-21T08:54:09.729Z,7.50
2022-10-21T08:55:20.071Z,7.40
2022-10-21T08:57:28.769Z,7.40
2022-10-21T08:58:32.010Z,6.00
2022-10-21T08:59:34.524Z,7.60
2022-10-21T09:00:46.645Z,7.40
2022-10-21T09:01:58.664Z,7.40
2022-10-21T09:03:26.453Z,8.20
2022-10-21T09:04:45.677Z,7.20
2022-10-21T09:06:15.195Z,7.40
2022-10-21T09:07:28.878Z,6.00
2022-10-21T09:08:41.690Z,7.40
2022-10-21T09:09:56.973Z,7.50
2022-10-21T09:11:13.775Z,7.60
2022-10-21T09:12:31.677Z,7.70
2022-10-21T09:14:06.715Z,7.80
2022-10-21T09:15:24.678Z,8.00
2022-10-21T09:16:43.998Z,8.10
2022-10-21T09:18:09.194Z,8.10
2022-10-21T09:19:25.859Z,8.10
2022-10-21T09:20:47.046Z,9.40
2022-10-21T09:22:29.988Z,8.10
2022-10-21T09:23:41.470Z,8.10
2022-10-21T09:24:53.725Z,8.10
2022-10-21T09:26:02.187Z,8.10
2022-10-21T09:27:07.244Z,8.10
2022-10-21T09:28:15.953Z,8.10
2022-10-21T09:29:29.590Z,8.20
2022-10-21T09:30:33.166Z,8.30
2022-10-21T09:31:36.564Z,8.40
2022-10-21T09:32:43.157Z,8.50
2022-10-21T09:33:54.026Z,8.60
2022-10-21T09:35:06.346Z,8.70
2022-10-21T09:36:17.325Z,8.80
2022-10-21T09:37:31.631Z,8.90
2022-10-21T09:38:43.592Z,8.90
2022-10-21T09:39:53.172Z,9.00
2022-10-21T09:41:03.424Z,9.00
2022-10-21T09:42:23.114Z,9.10
2022-10-21T09:43:36.199Z,9.10
2022-10-21T09:44:43.711Z,9.10
2022-10-21T09:45:48.239Z,9.00
2022-10-21T09:46:53.064Z,7.70
2022-10-21T09:48:01.146Z,8.90
2022-10-21T09:51:40.444Z,8.70
2022-10-21T09:52:54.173Z,8.60
2022-10-21T09:54:08.301Z,8.40
2022-10-21T09:55:14.009Z,8.80
2022-10-21T09:56:21.534Z,8.80
2022-10-21T09:57:42.582Z,8.90
2022-10-21T09:58:50.723Z,9.00
2022-10-21T09:59:57.369Z,9.20
2022-10-21T10:01:01.101Z,9.20
2022-10-21T10:02:12.032Z,9.30
2022-10-21T10:03:31.148Z,9.40
2022-10-21T10:04:36.740Z,9.40
2022-10-21T10:05:44.202Z,9.40
2022-10-21T10:06:51.980Z,9.50
2022-10-21T10:07:58.410Z,9.50
2022-10-21T10:09:16.952Z,10.60
2022-10-21T10:10:30.224Z,9.70
2022-10-21T10:11:33.614Z,9.80
2022-10-21T10:12:39.381Z,9.80
2022-10-21T10:13:44.780Z,9.10
2022-10-21T10:14:49.339Z,9.70
2022-10-21T10:15:51.705Z,9.70
2022-10-21T10:16:59.904Z,9.70
2022-10-21T10:18:04.758Z,9.70
2022-10-21T10:19:17.855Z,9.70
2022-10-21T10:20:23.343Z,11.00
2022-10-21T10:21:26.707Z,9.90
2022-10-21T10:22:35.882Z,9.80
2022-10-21T10:23:48.260Z,9.80
2022-10-21T10:24:54.061Z,9.70
2022-10-21T10:26:01.919Z,9.60
2022-10-21T10:27:06.990Z,9.60
2022-10-21T10:28:24.957Z,9.60
2022-10-21T10:29:30.452Z,9.80
2022-10-21T10:30:48.028Z,9.60
2022-10-21T10:31:54.684Z,9.80
2022-10-21T10:33:01.773Z,9.90
2022-10-21T10:34:07.918Z,10.00
2022-10-21T10:35:25.963Z,10.10
2022-10-21T10:36:33.705Z,10.00
2022-10-21T10:37:47.411Z,10.20
2022-10-21T10:38:57.203Z,10.50
2022-10-21T10:40:04.890Z,10.30
2022-10-21T10:41:11.462Z,10.30
2022-10-21T10:42:18.596Z,11.10
2022-10-21T10:43:28.837Z,10.50
2022-10-21T10:44:43.278Z,10.50
2022-10-21T10:45:54.085Z,10.50
2022-10-21T10:47:00.371Z,10.50
2022-10-21T10:48:04.077Z,10.60
2022-10-21T10:49:25.875Z,10.10
2022-10-21T10:50:48.631Z,10.60
2022-10-21T10:52:12.099Z,10.60
2022-10-21T10:53:30.118Z,10.60
2022-10-21T10:54:34.383Z,10.70
2022-10-21T10:55:50.105Z,9.90
2022-10-21T10:56:56.732Z,10.30
2022-10-21T10:58:12.381Z,10.20
2022-10-21T10:59:28.348Z,10.10
2022-10-21T11:00:39.089Z,10.10
2022-10-21T11:01:52.407Z,9.40
2022-10-21T11:03:01.726Z,10.20
2022-10-21T11:04:17.307Z,10.20
2022-10-21T11:05:31.808Z,10.30
2022-10-21T11:06:49.755Z,10.40
2022-10-21T11:07:59.319Z,10.40
2022-10-21T11:09:03.274Z,10.60
2022-10-21T11:10:15.395Z,10.50
2022-10-21T11:11:26.310Z,10.50
2022-10-21T11:12:29.620Z,10.40
2022-10-21T11:13:36.147Z,10.40
2022-10-21T11:14:41.126Z,10.30
2022-10-21T11:15:58.357Z,10.50
2022-10-21T11:17:10.412Z,10.20
2022-10-21T11:18:24.561Z,10.20
2022-10-21T11:19:36.652Z,9.90
2022-10-21T11:20:47.632Z,10.50
2022-10-21T11:21:55.705Z,10.60
2022-10-21T11:23:17.662Z,10.60
2022-10-21T11:24:49.767Z,10.70
2022-10-21T11:26:04.117Z,10.80
2022-10-21T11:27:19.337Z,10.80
2022-10-21T11:28:30.513Z,10.90
2022-10-21T11:29:43.607Z,11.00
2022-10-21T11:31:05.406Z,11.00
2022-10-21T11:32:27.549Z,11.00
2022-10-21T11:33:48.700Z,11.10
2022-10-21T11:35:05.771Z,11.00
2022-10-21T11:36:21.401Z,11.00
2022-10-21T11:37:47.852Z,11.00
2022-10-21T11:39:32.124Z,11.10
2022-10-21T11:40:42.818Z,11.10
2022-10-21T11:41:54.498Z,11.10
2022-10-21T11:43:05.867Z,11.10
2022-10-21T11:44:22.039Z,11.00
2022-10-21T11:45:41.021Z,11.00
2022-10-21T11:46:59.675Z,11.00
2022-10-21T11:48:19.106Z,10.20
2022-10-21T11:49:45.844Z,11.20
2022-10-21T11:51:03.825Z,11.30
2022-10-21T11:52:27.804Z,11.30
2022-10-21T11:53:47.463Z,11.20
2022-10-21T11:55:17.039Z,11.20
2022-10-21T11:56:31.812Z,11.20
2022-10-21T11:57:42.576Z,11.20
2022-10-21T11:59:04.480Z,11.10
2022-10-21T12:00:14.294Z,11.30
2022-10-21T12:01:32.612Z,11.20
2022-10-21T12:02:45.242Z,11.20
2022-10-21T12:04:20.507Z,11.30
2022-10-21T12:05:32.728Z,12.50
2022-10-21T12:06:43.222Z,11.10
2022-10-21T12:08:17.408Z,11.00
2022-10-21T12:09:29.409Z,10.90
2022-10-21T12:10:42.313Z,10.80
2022-10-21T12:11:51.894Z,10.80
2022-10-21T12:13:02.302Z,10.70
2022-10-21T12:14:28.843Z,10.60
2022-10-21T12:15:42.155Z,10.60
2022-10-21T12:16:47.991Z,10.50
2022-10-21T12:17:52.930Z,10.50
2022-10-21T12:19:01.091Z,10.50
2022-10-21T12:20:07.839Z,10.50
2022-10-21T12:21:20.096Z,10.60
2022-10-21T12:22:25.691Z,11.00
2022-10-21T12:23:32.798Z,10.50
2022-10-21T12:24:48.055Z,9.70
2022-10-21T12:26:08.132Z,10.50
2022-10-21T12:27:25.067Z,10.50
2022-10-21T12:28:35.469Z,10.50
2022-10-21T12:29:57.710Z,10.50
2022-10-21T12:31:24.131Z,9.10
2022-10-21T12:32:35.809Z,10.50
2022-10-21T12:33:44.402Z,9.90
2022-10-21T12:34:47.817Z,10.30
2022-10-21T12:35:54.915Z,10.30
2022-10-21T12:36:57.716Z,10.30
2022-10-21T12:38:22.728Z,10.30
2022-10-21T12:39:50.481Z,10.30
2022-10-21T12:41:29.162Z,10.20
2022-10-21T12:42:34.798Z,10.20
2022-10-21T12:43:39.568Z,10.10
2022-10-21T12:44:49.118Z,10.10
2022-10-21T12:46:16.154Z,10.10
2022-10-21T12:47:26.235Z,10.10
2022-10-21T12:48:40.741Z,10.00
2022-10-21T12:49:44.236Z,10.10
2022-10-21T12:50:59.466Z,10.10
2022-10-21T12:52:17.843Z,10.10
2022-10-21T12:53:35.997Z,10.10
2022-10-21T12:54:52.088Z,10.10
2022-10-21T12:55:59.319Z,10.10
2022-10-21T12:57:06.372Z,10.10
2022-10-21T12:58:26.905Z,10.00
2022-10-21T12:59:35.330Z,10.00
2022-10-21T13:00:57.895Z,9.90
2022-10-21T13:02:22.232Z,9.90
2022-10-21T13:03:52.560Z,9.90
2022-10-21T13:05:00.319Z,10.00
2022-10-21T13:06:10.525Z,9.00
2022-10-21T13:07:40.666Z,9.90
2022-10-21T13:08:53.974Z,10.00
2022-10-21T13:10:30.760Z,9.90
2022-10-21T13:11:41.207Z,9.90
2022-10-21T13:12:47.361Z,9.90
2022-10-21T13:14:26.599Z,9.90
2022-10-21T13:15:47.513Z,9.90
2022-10-21T13:16:51.262Z,9.90
2022-10-21T13:17:55.199Z,10.00
2022-10-21T13:19:04.059Z,10.10
2022-10-21T13:20:48.327Z,10.10
2022-10-21T13:22:03.471Z,10.00
2022-10-21T13:23:32.229Z,10.10
2022-10-21T13:24:36.141Z,10.20
2022-10-21T13:25:39.118Z,10.20
2022-10-21T13:26:51.128Z,10.20
2022-10-21T13:28:04.330Z,10.20
2022-10-21T13:29:41.432Z,10.30
2022-10-21T13:30:59.442Z,10.20
2022-10-21T13:32:28.279Z,10.30
2022-10-21T13:33:37.318Z,10.40
2022-10-21T13:34:53.741Z,10.40
2022-10-21T13:36:20.775Z,10.30
2022-10-21T13:37:29.652Z,10.30
2022-10-21T13:38:37.336Z,10.30
2022-10-21T13:39:42.303Z,10.60
2022-10-21T13:40:49.922Z,10.40
2022-10-21T13:42:04.533Z,10.40
2022-10-21T13:43:15.109Z,10.40
2022-10-21T13:44:29.598Z,10.40
2022-10-21T13:45:37.621Z,10.40
2022-10-21T13:46:43.618Z,10.40
2022-10-21T13:48:00.750Z,10.40
2022-10-21T13:49:04.191Z,10.40
2022-10-21T13:50:19.668Z,10.40
2022-10-21T13:51:29.623Z,10.30
2022-10-21T13:52:32.159Z,10.30
2022-10-21T13:53:43.667Z,10.40
2022-10-21T13:54:46.610Z,10.30
2022-10-21T13:56:00.434Z,10.40
2022-10-21T13:57:09.825Z,10.40
2022-10-21T13:58:17.923Z,10.40
2022-10-21T13:59:26.836Z,10.40
2022-10-21T14:00:31.459Z,10.40
2022-10-21T14:01:47.456Z,10.50
2022-10-21T14:02:56.068Z,10.50
2022-10-21T14:04:16.555Z,10.50
2022-10-21T14:05:47.661Z,10.40
2022-10-21T14:06:56.924Z,10.40
2022-10-21T14:08:02.917Z,10.40
2022-10-21T14:09:09.180Z,10.40
2022-10-21T14:10:16.465Z,10.40
2022-10-21T14:11:24.274Z,10.50
2022-10-21T14:12:36.318Z,10.50
2022-10-21T14:13:40.385Z,10.50
2022-10-21T14:14:44.001Z,10.40
2022-10-21T14:15:47.746Z,10.50
2022-10-21T14:16:56.884Z,10.50
2022-10-21T14:18:00.431Z,10.50
2022-10-21T14:19:10.850Z,10.50
2022-10-21T14:20:20.173Z,10.70
2022-10-21T14:21:27.381Z,10.60
2022-10-21T14:22:31.572Z,10.60
2022-10-21T14:23:36.090Z,10.70
2022-10-21T14:24:44.240Z,10.70
2022-10-21T14:25:49.058Z,10.70
2022-10-21T14:26:53.459Z,10.70
2022-10-21T14:27:58.996Z,11.20
2022-10-21T14:29:04.255Z,10.70
2022-10-21T14:30:10.260Z,10.70
2022-10-21T14:31:15.630Z,10.80
2022-10-21T14:32:21.350Z,10.40
2022-10-21T14:33:28.524Z,10.70
2022-10-21T14:34:34.283Z,10.80
2022-10-21T14:35:38.055Z,10.80
2022-10-21T14:37:01.078Z,10.80
2022-10-21T14:38:05.072Z,10.90
2022-10-21T14:39:21.398Z,11.60
2022-10-21T14:40:29.661Z,11.10
2022-10-21T14:41:37.393Z,11.10
2022-10-21T14:42:41.981Z,11.20
2022-10-21T14:43:50.569Z,11.20
2022-10-21T14:45:04.910Z,11.10
2022-10-21T14:46:09.960Z,11.10
2022-10-21T14:47:20.639Z,11.20
2022-10-21T14:48:28.481Z,11.10
2022-10-21T14:49:35.550Z,11.20
2022-10-21T14:50:41.644Z,11.20
2022-10-21T14:51:45.078Z,11.10
2022-10-21T14:52:49.272Z,9.30
2022-10-21T14:53:58.573Z,11.10
2022-10-21T14:55:07.352Z,11.00
2022-10-21T14:56:20.802Z,11.00
2022-10-21T14:57:39.256Z,10.90
2022-10-21T14:58:42.644Z,10.80
2022-10-21T14:59:52.680Z,10.80
2022-10-21T15:01:01.746Z,10.80
2022-10-21T15:02:06.736Z,10.80
2022-10-21T15:03:11.065Z,10.80
2022-10-21T15:04:42.967Z,10.80
2022-10-21T15:05:54.473Z,10.80
2022-10-21T15:07:02.657Z,10.90
2022-10-21T15:08:29.421Z,10.90
2022-10-21T15:09:35.423Z,11.00
2022-10-21T15:10:38.685Z,10.90
2022-10-21T15:11:44.985Z,10.90
2022-10-21T15:12:51.047Z,10.80
2022-10-21T15:14:24.088Z,10.80